Time;durP1;ratioP1;P1;durP2;ratioP2;P2;SDS_P1;SDS_P2;PMS_P1;PMS_P2;Temp;Humidity;BMP_temperature;BMP_pressure;BME280_temperature;BME280_humidity;BME280_pressure;Samples;Min_cycle;Max_cycle;Signal;HPM_P1;HPM_P2
2022/10/14 00:00:12;;;;;;;46.83;29.92;;;12.40;99.90;;;;;;4941140;28;95545;-34
2022/10/14 00:02:38;;;;;;;46.13;34.85;;;12.40;99.90;;;;;;4937981;28;95619;-31
2022/10/14 00:05:04;;;;;;;46.72;33.00;;;12.40;99.90;;;;;;4936531;28;93476;-34
2022/10/14 00:07:29;;;;;;;53.67;32.58;;;12.40;99.90;;;;;;4936692;28;93467;-31
2022/10/14 00:09:55;;;;;;;44.85;34.35;;;12.40;99.90;;;;;;4937172;28;95044;-31
2022/10/14 00:12:21;;;;;;;53.88;33.30;;;12.40;99.90;;;;;;4937021;28;94796;-31
2022/10/14 00:14:46;;;;;;;37.13;27.23;;;12.30;99.90;;;;;;4937098;28;93255;-31
2022/10/14 00:17:12;;;;;;;55.50;36.28;;;12.40;99.90;;;;;;4936863;28;93830;-33
2022/10/14 00:19:37;;;;;;;46.78;31.15;;;12.30;99.90;;;;;;4936171;28;95752;-30
2022/10/14 00:22:03;;;;;;;37.45;28.73;;;12.30;99.90;;;;;;4936198;28;94871;-32
2022/10/14 00:24:29;;;;;;;43.75;31.38;;;12.30;99.90;;;;;;4936335;28;93763;-31
2022/10/14 00:26:54;;;;;;;48.90;33.20;;;12.30;99.90;;;;;;4937569;28;94584;-31
2022/10/14 00:29:20;;;;;;;40.38;29.52;;;12.30;99.90;;;;;;4936232;28;94921;-32
2022/10/14 00:31:46;;;;;;;47.30;33.35;;;12.30;99.90;;;;;;4935804;28;94473;-32
2022/10/14 00:34:14;;;;;;;58.80;34.00;;;12.30;99.90;;;;;;4936871;28;94854;-31
2022/10/14 00:36:40;;;;;;;;;;;12.30;99.90;;;;;;4936559;28;94322;-34
2022/10/14 00:39:06;;;;;;;37.45;30.85;;;12.30;99.90;;;;;;4938433;28;94678;-33
2022/10/14 00:41:33;;;;;;;60.38;38.05;;;12.30;99.90;;;;;;4936903;28;94495;-34
2022/10/14 00:44:14;;;;;;;46.67;30.20;;;12.30;99.90;;;;;;4936229;28;93413;-32
2022/10/14 00:46:47;;;;;;;40.35;32.15;;;12.30;99.90;;;;;;4936354;28;94484;-35
2022/10/14 00:49:15;;;;;;;51.15;35.38;;;12.30;99.90;;;;;;4936376;28;95449;-34
2022/10/14 00:51:51;;;;;;;55.28;35.63;;;12.30;99.90;;;;;;4936003;28;95501;-32
2022/10/14 00:54:19;;;;;;;55.13;37.22;;;12.30;99.90;;;;;;4972099;22;94679;-34
2022/10/14 00:56:46;;;;;;;48.63;31.83;;;12.30;99.90;;;;;;4965950;28;94663;-32
2022/10/14 00:59:13;;;;;;;47.53;33.00;;;12.30;99.90;;;;;;4974820;28;95062;-34
2022/10/14 01:01:39;;;;;;;42.40;32.78;;;12.30;99.90;;;;;;4975471;28;95521;-32
2022/10/14 01:04:04;;;;;;;63.25;34.35;;;12.30;99.90;;;;;;4978150;28;92157;-34
2022/10/14 01:06:35;;;;;;;37.92;30.42;;;12.20;99.90;;;;;;4979086;28;93559;-34
2022/10/14 01:09:10;;;;;;;42.08;30.30;;;12.20;99.90;;;;;;4977962;28;94454;-34
2022/10/14 01:11:51;;;;;;;62.03;37.22;;;12.20;99.90;;;;;;4978428;28;94523;-34
2022/10/14 01:14:41;;;;;;;46.75;30.08;;;12.20;99.90;;;;;;4962003;28;93222;-31
2022/10/14 01:17:31;;;;;;;51.70;31.58;;;12.20;99.90;;;;;;4978321;28;94280;-35
2022/10/14 01:20:30;;;;;;;51.35;30.80;;;12.10;99.90;;;;;;4977922;28;96195;-31
2022/10/14 01:23:18;;;;;;;45.80;29.55;;;12.10;99.90;;;;;;4977603;28;95644;-35
2022/10/14 01:25:50;;;;;;;55.50;34.08;;;12.00;99.90;;;;;;4978560;28;93607;-32
2022/10/14 01:28:15;;;;;;;44.47;29.02;;;12.00;99.90;;;;;;4979009;28;93524;-31
2022/10/14 01:30:49;;;;;;;36.35;28.10;;;12.00;99.90;;;;;;4978249;28;94666;-32
2022/10/14 01:33:37;;;;;;;42.65;29.52;;;12.00;99.90;;;;;;4978571;28;94998;-31
2022/10/14 01:36:14;;;;;;;40.97;28.92;;;12.00;99.90;;;;;;4978780;28;93623;-32
2022/10/14 01:38:48;;;;;;;39.53;26.07;;;12.00;99.90;;;;;;4977686;28;92135;-34
2022/10/14 01:41:31;;;;;;;40.20;26.05;;;12.00;99.90;;;;;;4961151;28;95827;-33
2022/10/14 01:44:01;;;;;;;31.63;25.30;;;11.90;99.90;;;;;;4977245;28;94742;-31
2022/10/14 01:46:29;;;;;;;37.78;27.48;;;11.90;99.90;;;;;;4978357;28;93022;-31
2022/10/14 01:49:00;;;;;;;33.93;26.83;;;12.00;99.90;;;;;;4977779;28;92956;-32
2022/10/14 01:51:38;;;;;;;35.47;25.08;;;11.90;99.90;;;;;;4977831;28;95028;-32
2022/10/14 01:54:11;;;;;;;30.17;19.95;;;11.90;99.90;;;;;;4976881;28;94917;-32
2022/10/14 01:56:38;;;;;;;32.85;22.38;;;11.90;99.90;;;;;;4977842;28;94264;-32
2022/10/14 01:59:04;;;;;;;40.17;24.45;;;11.90;99.90;;;;;;4977643;28;93904;-33
2022/10/14 02:01:30;;;;;;;39.00;25.27;;;11.80;99.90;;;;;;4978496;28;95514;-32
2022/10/14 02:03:55;;;;;;;37.55;23.60;;;11.80;99.90;;;;;;4976861;28;94677;-31
2022/10/14 02:06:26;;;;;;;42.72;26.00;;;11.80;99.90;;;;;;4977683;28;93050;-32
2022/10/14 02:09:01;;;;;;;34.70;20.88;;;11.70;99.90;;;;;;4977598;28;92653;-31
2022/10/14 02:11:35;;;;;;;36.88;22.73;;;11.70;99.90;;;;;;4978090;28;94287;-32
2022/10/14 02:14:25;;;;;;;37.67;21.02;;;11.70;99.90;;;;;;4976667;28;94296;-32
2022/10/14 02:17:22;;;;;;;27.92;21.30;;;11.60;99.90;;;;;;4977332;28;92490;-34
2022/10/14 02:19:58;;;;;;;34.67;22.38;;;11.60;99.90;;;;;;4977216;28;93046;-31
2022/10/14 02:22:42;;;;;;;35.92;22.75;;;11.60;99.90;;;;;;4977687;28;94752;-31
2022/10/14 02:25:23;;;;;;;41.30;23.35;;;11.60;99.90;;;;;;4978172;28;94523;-32
2022/10/14 02:27:50;;;;;;;43.58;24.77;;;11.60;99.90;;;;;;4977702;28;92155;-32
2022/10/14 02:30:17;;;;;;;35.58;20.25;;;11.60;99.90;;;;;;4973361;28;94124;-32
2022/10/14 02:32:45;;;;;;;30.88;19.73;;;11.50;99.90;;;;;;4967052;28;95622;-32
2022/10/14 02:35:14;;;;;;;27.58;17.52;;;11.50;99.90;;;;;;4977258;28;96539;-33
2022/10/14 02:37:40;;;;;;;25.58;18.23;;;11.50;99.90;;;;;;4977902;28;93733;-36
2022/10/14 02:40:27;;;;;;;35.50;19.95;;;11.50;99.90;;;;;;4977475;28;93413;-32
2022/10/14 02:42:53;;;;;;;32.35;20.70;;;11.40;99.90;;;;;;4976235;28;94725;-32
2022/10/14 02:45:19;;;;;;;46.83;22.35;;;11.40;99.90;;;;;;4966093;28;95259;-33
2022/10/14 02:47:45;;;;;;;26.30;16.50;;;11.40;99.90;;;;;;4957514;28;93186;-33
2022/10/14 02:50:11;;;;;;;41.78;16.42;;;11.30;99.90;;;;;;4957401;28;94408;-31
2022/10/14 02:52:36;;;;;;;53.97;19.95;;;11.30;99.90;;;;;;4957085;28;93685;-33
2022/10/14 02:55:03;;;;;;;20.40;15.75;;;11.30;99.90;;;;;;4956072;28;96130;-31
2022/10/14 02:57:28;;;;;;;52.08;19.20;;;11.20;99.90;;;;;;4957120;28;93061;-34
2022/10/14 02:59:54;;;;;;;53.97;21.23;;;11.20;99.90;;;;;;4957455;28;94725;-31
2022/10/14 03:02:19;;;;;;;35.38;16.88;;;11.20;99.90;;;;;;4956016;28;95271;-31
2022/10/14 03:04:45;;;;;;;32.55;16.85;;;11.20;99.90;;;;;;4956919;28;94489;-33
2022/10/14 03:07:10;;;;;;;26.98;16.40;;;11.20;99.90;;;;;;4957683;28;93068;-32
2022/10/14 03:09:36;;;;;;;33.75;14.73;;;11.20;99.90;;;;;;4958114;28;94818;-30
2022/10/14 03:12:02;;;;;;;29.30;15.57;;;11.10;99.90;;;;;;4956955;28;95700;-33
2022/10/14 03:14:27;;;;;;;18.45;13.13;;;11.10;99.90;;;;;;4957107;28;97005;-30
2022/10/14 03:16:53;;;;;;;25.73;14.77;;;11.10;99.90;;;;;;4957059;28;93185;-32
2022/10/14 03:19:18;;;;;;;42.83;14.27;;;11.10;99.90;;;;;;4956444;28;92639;-31
2022/10/14 03:21:44;;;;;;;46.45;14.20;;;11.10;99.90;;;;;;4956635;28;95479;-32
2022/10/14 03:24:09;;;;;;;35.20;15.25;;;11.00;99.90;;;;;;4956136;28;96050;-33
2022/10/14 03:26:35;;;;;;;32.72;14.70;;;11.10;99.90;;;;;;4939237;28;93458;-33
2022/10/14 03:29:01;;;;;;;41.92;16.17;;;11.00;99.90;;;;;;4956423;28;92163;-34
2022/10/14 03:31:26;;;;;;;25.33;13.63;;;11.00;99.90;;;;;;4956789;28;95082;-32
2022/10/14 03:33:52;;;;;;;38.80;16.27;;;11.00;99.90;;;;;;4956601;28;94482;-31
2022/10/14 03:36:17;;;;;;;20.30;13.40;;;11.00;99.90;;;;;;4957275;28;93369;-31
2022/10/14 03:38:44;;;;;;;29.38;15.20;;;11.00;99.90;;;;;;4957336;28;91450;-33
2022/10/14 03:41:09;;;;;;;46.58;13.25;;;10.90;99.90;;;;;;4956731;28;94565;-30
2022/10/14 03:43:35;;;;;;;24.17;13.15;;;10.90;99.90;;;;;;4956688;28;94483;-34
2022/10/14 03:46:00;;;;;;;30.83;14.98;;;10.90;99.90;;;;;;4956629;28;95242;-31
2022/10/14 03:48:26;;;;;;;20.65;12.98;;;10.90;99.90;;;;;;4956667;28;94945;-34
2022/10/14 03:50:52;;;;;;;25.77;13.48;;;10.90;99.90;;;;;;4956484;28;94915;-30
2022/10/14 03:53:18;;;;;;;27.42;13.85;;;10.90;99.90;;;;;;4955991;28;94926;-32
2022/10/14 03:55:43;;;;;;;23.40;14.50;;;10.90;99.90;;;;;;4956696;28;94057;-32
2022/10/14 03:58:10;;;;;;;24.80;13.48;;;10.90;99.90;;;;;;4956097;28;93397;-34
2022/10/14 04:00:36;;;;;;;31.33;15.27;;;10.90;99.90;;;;;;4955844;28;95564;-31
2022/10/14 04:03:02;;;;;;;48.92;17.02;;;10.90;99.90;;;;;;4956523;28;94501;-33
2022/10/14 04:05:32;;;;;;;21.02;14.57;;;10.90;99.90;;;;;;4956220;28;93226;-34
2022/10/14 04:08:01;;;;;;;41.03;19.92;;;10.90;99.90;;;;;;4955779;28;93817;-33
2022/10/14 04:10:27;;;;;;;32.30;19.67;;;11.00;99.90;;;;;;4955579;28;96514;-33
2022/10/14 04:12:53;;;;;;;38.63;21.90;;;11.00;99.90;;;;;;4955518;28;95648;-34
2022/10/14 04:15:19;;;;;;;33.95;23.95;;;11.00;99.90;;;;;;4956909;28;93451;-31
2022/10/14 04:17:45;;;;;;;45.40;25.00;;;11.00;99.90;;;;;;4955260;28;92531;-31
2022/10/14 04:20:13;;;;;;;43.03;24.33;;;11.10;99.90;;;;;;4956279;28;95268;-33
2022/10/14 04:22:38;;;;;;;49.83;27.10;;;11.10;99.90;;;;;;4956481;28;96148;-30
2022/10/14 04:25:04;;;;;;;41.05;24.92;;;11.10;99.90;;;;;;4955959;28;94269;-32
2022/10/14 04:27:30;;;;;;;45.63;24.80;;;11.10;99.90;;;;;;4956397;28;92887;-31
2022/10/14 04:29:55;;;;;;;57.30;28.42;;;11.10;99.90;;;;;;4955482;28;95424;-31
2022/10/14 04:32:21;;;;;;;46.55;26.23;;;11.10;99.90;;;;;;4956399;28;96285;-31
2022/10/14 04:34:46;;;;;;;52.03;26.13;;;11.10;99.90;;;;;;4938328;28;94581;-31
2022/10/14 04:37:12;;;;;;;41.55;26.90;;;11.10;99.90;;;;;;4958678;28;93176;-33
2022/10/14 04:39:38;;;;;;;38.28;21.92;;;11.10;99.90;;;;;;4959394;28;94432;-31
2022/10/14 04:42:03;;;;;;;42.30;24.60;;;11.10;99.90;;;;;;4958985;28;94608;-33
2022/10/14 04:44:29;;;;;;;46.10;25.25;;;11.20;99.90;;;;;;4959838;28;93236;-33
2022/10/14 04:46:54;;;;;;;66.65;29.23;;;11.20;99.90;;;;;;4958919;28;93523;-31
2022/10/14 04:49:20;;;;;;;52.72;25.92;;;11.20;99.90;;;;;;4959240;28;95497;-32
2022/10/14 04:51:46;;;;;;;44.50;26.75;;;11.20;99.90;;;;;;4959274;28;96410;-33
2022/10/14 04:54:11;;;;;;;45.40;27.15;;;11.20;99.90;;;;;;4959421;28;93472;-31
2022/10/14 04:56:37;;;;;;;48.90;27.35;;;11.20;99.90;;;;;;4959445;28;92516;-31
2022/10/14 04:59:03;;;;;;;47.70;28.20;;;11.20;99.90;;;;;;4957706;28;95500;-31
2022/10/14 05:01:29;;;;;;;59.88;28.80;;;11.20;99.90;;;;;;4958862;28;95323;-33
2022/10/14 05:03:55;;;;;;;51.67;39.03;;;11.20;99.90;;;;;;4958417;28;94017;-32
2022/10/14 05:06:20;;;;;;;51.83;28.42;;;11.20;99.90;;;;;;4958619;28;93728;-34
2022/10/14 05:08:46;;;;;;;42.00;29.83;;;11.20;99.90;;;;;;4959160;28;93120;-32
2022/10/14 05:11:12;;;;;;;50.15;27.42;;;11.20;99.90;;;;;;4958993;28;94672;-31
2022/10/14 05:13:38;;;;;;;47.83;27.73;;;11.30;99.90;;;;;;4959200;28;92220;-34
2022/10/14 05:16:04;;;;;;;82.00;29.98;;;11.30;99.90;;;;;;4958763;28;93408;-32
2022/10/14 05:18:29;;;;;;;56.78;26.73;;;11.30;99.90;;;;;;4958520;28;94059;-34
2022/10/14 05:20:58;;;;;;;54.50;29.42;;;11.30;99.90;;;;;;4958467;28;94332;-32
2022/10/14 05:23:23;;;;;;;41.13;25.92;;;11.30;99.90;;;;;;4958038;28;93072;-33
2022/10/14 05:25:50;;;;;;;44.55;26.80;;;11.30;99.90;;;;;;4958534;28;93600;-33
2022/10/14 05:28:16;;;;;;;34.47;24.35;;;11.30;99.90;;;;;;4958806;28;94791;-32
2022/10/14 05:30:42;;;;;;;49.90;28.08;;;11.30;99.90;;;;;;4957607;28;94154;-34
2022/10/14 05:33:08;;;;;;;32.47;23.35;;;11.20;99.90;;;;;;4959414;28;93308;-31
2022/10/14 05:35:34;;;;;;;34.00;26.30;;;11.20;99.90;;;;;;4937505;28;95191;-35
2022/10/14 05:37:59;;;;;;;32.70;24.63;;;11.30;99.90;;;;;;4958133;28;95617;-34
2022/10/14 05:40:25;;;;;;;43.97;25.20;;;11.20;99.90;;;;;;4958661;28;95059;-31
2022/10/14 05:42:50;;;;;;;34.58;24.30;;;11.20;99.90;;;;;;4957647;28;92125;-31
2022/10/14 05:45:16;;;;;;;88.38;55.53;;;11.20;99.90;;;;;;4959189;28;94962;-33
2022/10/14 05:47:45;;;;;;;77.00;50.72;;;11.20;99.90;;;;;;4957074;28;95918;-31
2022/10/14 05:50:11;;;;;;;56.47;38.95;;;11.20;99.90;;;;;;4958360;28;95289;-33
2022/10/14 05:52:38;;;;;;;40.58;26.90;;;11.20;99.90;;;;;;4958841;28;93325;-32
2022/10/14 05:55:05;;;;;;;46.28;28.65;;;11.20;99.90;;;;;;4957856;28;93500;-30
2022/10/14 05:57:32;;;;;;;38.15;25.35;;;11.20;99.90;;;;;;4958255;28;95193;-31
2022/10/14 06:00:01;;;;;;;36.17;24.23;;;11.20;99.90;;;;;;4957614;28;94331;-34
2022/10/14 06:02:26;;;;;;;42.03;26.38;;;11.10;99.90;;;;;;4958763;28;93479;-32
2022/10/14 06:04:52;;;;;;;41.97;26.25;;;11.20;99.90;;;;;;4957203;28;92983;-30
2022/10/14 06:07:18;;;;;;;38.17;26.20;;;11.20;99.90;;;;;;4957863;28;94603;-33
2022/10/14 06:09:43;;;;;;;32.42;23.35;;;11.10;99.90;;;;;;4958401;28;94482;-30
2022/10/14 06:12:09;;;;;;;31.50;22.13;;;11.20;99.90;;;;;;4939955;28;95747;-31
2022/10/14 06:14:37;;;;;;;33.85;22.92;;;11.20;99.90;;;;;;4958074;28;93176;-32
2022/10/14 06:17:03;;;;;;;33.05;23.23;;;11.10;99.90;;;;;;4957817;28;94779;-31
2022/10/14 06:19:30;;;;;;;31.15;24.02;;;11.10;99.90;;;;;;4956710;28;94561;-32
2022/10/14 06:21:55;;;;;;;35.22;23.35;;;11.10;99.90;;;;;;4957134;28;94116;-34
2022/10/14 06:24:21;;;;;;;35.88;24.48;;;11.20;99.90;;;;;;4957609;28;93273;-32
2022/10/14 06:26:47;;;;;;;37.97;23.52;;;11.20;99.90;;;;;;4957312;28;95153;-32
2022/10/14 06:29:13;;;;;;;35.78;21.75;;;11.20;99.90;;;;;;4957462;28;94460;-33
2022/10/14 06:31:39;;;;;;;34.42;21.33;;;11.20;99.90;;;;;;4956911;28;93301;-31
2022/10/14 06:34:05;;;;;;;35.38;22.80;;;11.30;99.90;;;;;;4957946;28;94459;-35
2022/10/14 06:36:30;;;;;;;28.33;22.08;;;11.20;99.90;;;;;;4945431;28;96788;-31
2022/10/14 06:38:56;;;;;;;34.70;21.67;;;11.20;99.90;;;;;;4956263;28;95812;-33
2022/10/14 06:41:22;;;;;;;29.17;20.48;;;11.20;99.90;;;;;;4956714;28;92079;-33
2022/10/14 06:43:48;;;;;;;31.65;20.33;;;11.20;99.90;;;;;;4957305;28;94065;-31
2022/10/14 06:46:14;;;;;;;26.77;20.95;;;11.20;99.90;;;;;;4956258;28;94755;-34
2022/10/14 06:48:39;;;;;;;30.67;22.55;;;11.20;99.90;;;;;;4961963;28;94482;-35
2022/10/14 06:51:05;;;;;;;32.63;23.00;;;11.20;99.90;;;;;;4976920;28;94608;-33
2022/10/14 06:53:30;;;;;;;40.97;23.35;;;11.20;99.90;;;;;;4973528;28;93326;-30
2022/10/14 06:55:58;;;;;;;35.92;24.58;;;11.20;99.90;;;;;;4956160;28;94697;-32
2022/10/14 06:58:23;;;;;;;36.28;23.92;;;11.20;99.90;;;;;;4956431;28;94707;-30
2022/10/14 07:00:49;;;;;;;34.80;25.70;;;11.30;99.90;;;;;;4946045;28;94022;-32
2022/10/14 07:03:16;;;;;;;37.30;25.60;;;11.30;99.90;;;;;;4955870;28;92761;-33
2022/10/14 07:05:41;;;;;;;44.13;26.75;;;11.30;99.90;;;;;;4954020;28;95282;-33
2022/10/14 07:08:07;;;;;;;34.03;26.20;;;11.30;99.90;;;;;;4954977;28;94706;-32
2022/10/14 07:10:33;;;;;;;36.80;24.50;;;11.30;99.90;;;;;;4954736;28;93594;-33
2022/10/14 07:12:58;;;;;;;33.60;23.98;;;11.40;99.90;;;;;;4952688;28;93138;-31
2022/10/14 07:15:24;;;;;;;38.35;22.73;;;11.40;99.90;;;;;;4954557;28;94797;-32
2022/10/14 07:17:49;;;;;;;28.00;22.25;;;11.50;99.90;;;;;;4954383;28;94642;-34
2022/10/14 07:20:22;;;;;;;33.08;23.98;;;11.60;99.90;;;;;;5060469;27;88499;-40
2022/10/14 07:22:47;;;;;;;31.80;23.80;;;11.60;99.90;;;;;;5036257;27;89606;-36
2022/10/14 07:25:13;;;;;;;31.42;22.30;;;11.60;99.90;;;;;;5034569;27;89075;-37
2022/10/14 07:27:38;;;;;;;38.53;21.63;;;11.70;99.90;;;;;;5036802;27;89946;-36
2022/10/14 07:30:05;;;;;;;33.00;23.63;;;11.70;99.90;;;;;;5035906;27;88812;-35
2022/10/14 07:32:30;;;;;;;33.35;22.85;;;11.70;99.90;;;;;;5036135;27;87562;-34
2022/10/14 07:34:56;;;;;;;29.10;20.75;;;11.80;99.90;;;;;;5036053;27;90165;-34
2022/10/14 07:37:22;;;;;;;26.35;21.23;;;11.80;99.90;;;;;;5035337;27;89356;-35
2022/10/14 07:39:48;;;;;;;32.03;21.30;;;11.80;99.90;;;;;;5035690;27;89972;-33
2022/10/14 07:42:13;;;;;;;39.03;22.02;;;11.90;99.90;;;;;;5036225;27;89432;-35
2022/10/14 07:44:39;;;;;;;30.02;20.50;;;11.90;99.90;;;;;;5034852;27;88382;-43
2022/10/14 07:47:05;;;;;;;28.98;22.30;;;11.90;99.90;;;;;;5036077;27;90195;-40
2022/10/14 07:49:31;;;;;;;30.45;22.27;;;12.00;99.90;;;;;;5035865;27;89270;-43
2022/10/14 07:51:57;;;;;;;32.63;21.50;;;12.00;99.90;;;;;;5036227;27;89094;-40
2022/10/14 07:54:25;;;;;;;30.77;21.92;;;12.00;99.90;;;;;;5024359;27;89060;-37
2022/10/14 07:56:51;;;;;;;;;;;12.00;99.90;;;;;;5033010;27;90370;-41
2022/10/14 07:59:18;;;;;;;32.50;24.70;;;12.00;99.90;;;;;;5038691;27;89920;-39
2022/10/14 08:01:49;;;;;;;36.95;23.02;;;12.00;99.90;;;;;;5035319;27;87836;-36
2022/10/14 08:04:15;;;;;;;33.03;21.55;;;12.10;99.90;;;;;;5036432;27;88028;-36
2022/10/14 08:06:41;;;;;;;35.53;22.55;;;12.10;99.90;;;;;;5034748;27;90267;-40
2022/10/14 08:09:09;;;;;;;30.95;19.85;;;12.10;99.90;;;;;;5034551;27;89018;-41
2022/10/14 08:11:36;;;;;;;;;;;12.10;99.90;;;;;;5036857;27;89548;-37
2022/10/14 08:14:02;;;;;;;36.80;23.65;;;12.10;99.90;;;;;;5037903;27;89822;-38
2022/10/14 08:16:30;;;;;;;28.63;21.23;;;12.20;99.90;;;;;;5036098;27;90142;-40
2022/10/14 08:18:59;;;;;;;31.02;22.13;;;12.10;99.90;;;;;;5035031;27;90144;-38
2022/10/14 08:21:25;;;;;;;34.58;20.52;;;12.20;99.90;;;;;;5035485;27;88518;-37
2022/10/14 08:23:53;;;;;;;32.10;20.88;;;12.10;99.90;;;;;;5034460;27;88164;-41
2022/10/14 08:26:39;;;;;;;34.00;24.73;;;12.20;99.90;;;;;;5035499;27;91237;-34
2022/10/14 08:29:08;;;;;;;29.70;21.77;;;12.20;99.90;;;;;;5036084;27;90072;-40
2022/10/14 08:31:34;;;;;;;35.85;24.35;;;12.20;99.90;;;;;;5023276;27;88909;-39
2022/10/14 08:34:00;;;;;;;33.08;24.38;;;12.20;99.90;;;;;;5021177;27;89333;-39
2022/10/14 08:36:25;;;;;;;32.20;22.55;;;12.30;99.90;;;;;;5022024;27;90256;-34
2022/10/14 08:38:52;;;;;;;33.13;24.02;;;12.30;99.90;;;;;;5021831;28;89519;-36
2022/10/14 08:42:03;;;;;;;32.72;23.65;;;12.40;99.90;;;;;;5021861;28;89659;-35
2022/10/14 08:44:41;;;;;;;28.55;22.67;;;12.40;99.90;;;;;;5021337;27;88716;-40
2022/10/14 08:47:13;;;;;;;31.33;24.23;;;12.40;99.90;;;;;;5021702;28;90684;-35
2022/10/14 08:49:54;;;;;;;38.05;24.38;;;12.50;99.90;;;;;;5022025;28;89440;-37
2022/10/14 08:53:00;;;;;;;33.47;24.48;;;12.50;99.90;;;;;;5021858;27;89594;-44
2022/10/14 08:55:34;;;;;;;35.22;26.30;;;12.50;99.90;;;;;;4983042;28;88296;-35
2022/10/14 08:58:07;;;;;;;34.13;24.20;;;12.50;99.90;;;;;;5021178;28;90262;-39
2022/10/14 09:00:34;;;;;;;53.00;27.90;;;12.60;99.90;;;;;;5021880;27;89837;-34
2022/10/14 09:03:09;;;;;;;46.55;27.90;;;12.60;99.90;;;;;;5022212;28;87902;-33
2022/10/14 09:05:38;;;;;;;46.90;29.02;;;12.60;99.90;;;;;;5023665;27;89067;-35
2022/10/14 09:08:05;;;;;;;48.60;27.67;;;12.60;99.90;;;;;;5024971;27;90277;-33
2022/10/14 09:10:38;;;;;;;52.20;28.08;;;12.60;99.90;;;;;;5021948;27;89585;-36
2022/10/14 09:13:14;;;;;;;47.47;30.55;;;12.60;99.90;;;;;;5022651;27;88146;-39
2022/10/14 09:15:43;;;;;;;45.55;26.67;;;12.60;99.90;;;;;;5021169;27;88933;-35
2022/10/14 09:18:32;;;;;;;42.03;28.00;;;12.60;99.90;;;;;;5020844;28;90564;-39
2022/10/14 09:20:58;;;;;;;55.35;30.25;;;12.70;99.90;;;;;;5021232;28;89716;-42
2022/10/14 09:23:26;;;;;;;48.25;28.35;;;12.70;99.90;;;;;;5021198;28;88710;-32
2022/10/14 09:25:52;;;;;;;;;;;12.70;99.90;;;;;;5021521;28;88621;-37
2022/10/14 09:28:18;;;;;;;51.85;33.35;;;12.60;99.90;;;;;;5024452;27;90700;-36
2022/10/14 09:30:44;;;;;;;44.40;28.95;;;12.70;99.90;;;;;;5020053;27;88163;-34
2022/10/14 09:33:16;;;;;;;48.95;29.83;;;12.70;99.90;;;;;;5020942;27;88905;-43
2022/10/14 09:35:43;;;;;;;46.65;28.60;;;12.70;99.90;;;;;;5020153;27;88039;-40
2022/10/14 09:38:11;;;;;;;50.85;29.58;;;12.70;99.90;;;;;;5021200;27;89969;-43
2022/10/14 09:40:58;;;;;;;44.75;31.48;;;12.70;99.90;;;;;;5021070;27;89449;-43
2022/10/14 09:43:24;;;;;;;51.70;31.73;;;12.80;99.90;;;;;;5020263;27;89980;-39
2022/10/14 09:46:00;;;;;;;46.85;28.83;;;12.80;99.90;;;;;;5020583;27;88094;-36
2022/10/14 09:48:48;;;;;;;56.78;32.92;;;12.80;99.90;;;;;;5020672;28;90394;-38
2022/10/14 09:51:24;;;;;;;46.95;26.77;;;12.80;99.90;;;;;;5024552;27;90751;-38
2022/10/14 09:53:56;;;;;;;44.58;27.52;;;12.90;99.90;;;;;;5020266;27;89839;-33
2022/10/14 09:56:33;;;;;;;48.35;28.88;;;12.90;99.90;;;;;;5013912;28;88707;-33
2022/10/14 09:59:00;;;;;;;51.47;28.02;;;13.00;99.90;;;;;;5007641;28;88297;-38
2022/10/14 10:01:39;;;;;;;47.97;28.58;;;12.90;99.90;;;;;;5020488;27;90383;-39
2022/10/14 10:04:27;;;;;;;57.08;30.67;;;12.90;99.90;;;;;;5020704;27;89574;-42
2022/10/14 10:06:54;;;;;;;58.42;31.45;;;12.90;99.90;;;;;;5020391;27;88136;-43
2022/10/14 10:09:20;;;;;;;45.13;29.85;;;12.90;99.90;;;;;;5020006;27;91581;-32
2022/10/14 10:11:46;;;;;;;50.25;29.33;;;12.90;99.90;;;;;;5019821;27;89153;-35
2022/10/14 10:14:25;;;;;;;52.92;31.85;;;12.90;99.90;;;;;;5020267;28;88218;-36
2022/10/14 10:17:17;;;;;;;39.15;26.88;;;12.90;99.90;;;;;;5020573;27;88906;-40
2022/10/14 10:19:50;;;;;;;59.80;32.75;;;12.90;99.90;;;;;;5019437;27;89354;-40
2022/10/14 10:22:18;;;;;;;55.47;32.53;;;12.80;99.90;;;;;;5020021;27;90165;-36
2022/10/14 10:24:45;;;;;;;50.75;29.20;;;12.80;99.90;;;;;;5020199;28;87592;-40
2022/10/14 10:27:28;;;;;;;41.35;28.35;;;12.80;99.90;;;;;;5020645;27;90323;-36
2022/10/14 10:29:55;;;;;;;50.30;30.25;;;12.90;99.90;;;;;;5025047;27;89905;-35
2022/10/14 10:32:37;;;;;;;51.40;30.27;;;12.90;99.90;;;;;;5021075;27;89659;-37
2022/10/14 10:35:29;;;;;;;49.92;28.95;;;12.90;99.90;;;;;;5021517;27;89374;-32
2022/10/14 10:38:13;;;;;;;61.95;28.33;;;12.90;99.90;;;;;;4998318;28;88819;-33
2022/10/14 10:40:40;;;;;;;45.00;26.90;;;12.80;99.90;;;;;;5030211;27;90217;-40
2022/10/14 10:43:24;;;;;;;39.17;25.13;;;12.90;99.90;;;;;;5020396;27;89612;-37
2022/10/14 10:46:07;;;;;;;39.53;27.35;;;12.90;99.90;;;;;;5019609;27;88830;-37
2022/10/14 10:48:44;;;;;;;40.40;25.17;;;12.90;99.90;;;;;;5020416;27;90201;-39
2022/10/14 10:51:46;;;;;;;41.67;25.27;;;12.90;99.90;;;;;;5019977;27;90316;-36
2022/10/14 10:54:31;;;;;;;39.88;24.80;;;12.90;99.90;;;;;;5009629;27;89688;-38
2022/10/14 10:57:05;;;;;;;36.88;25.55;;;12.90;99.90;;;;;;5019329;27;89042;-40
2022/10/14 10:59:50;;;;;;;39.88;26.23;;;13.00;99.90;;;;;;5019569;27;87817;-42
2022/10/14 11:02:44;;;;;;;47.03;22.77;;;13.00;99.90;;;;;;5019218;27;90495;-37
2022/10/14 11:05:16;;;;;;;41.03;24.58;;;13.00;99.90;;;;;;5019612;27;89514;-39
2022/10/14 11:14:20;;;;;;;37.40;23.92;;;13.00;99.90;;;;;;5017513;28;91409;-42
2022/10/14 11:17:20;;;;;;;41.17;24.27;;;13.00;99.90;;;;;;5017423;27;89597;-42
2022/10/14 11:20:04;;;;;;;40.63;25.98;;;13.00;99.90;;;;;;5006123;28;89342;-37
2022/10/14 11:23:08;;;;;;;45.92;27.90;;;13.00;99.90;;;;;;5017287;27;87601;-40
2022/10/14 11:25:48;;;;;;;41.83;27.10;;;13.00;99.90;;;;;;5009810;27;91195;-37
2022/10/14 11:28:23;;;;;;;47.58;29.15;;;13.20;99.90;;;;;;5017078;28;89611;-38
2022/10/14 11:31:04;;;;;;;52.38;31.48;;;13.20;99.90;;;;;;5016898;28;88927;-39
2022/10/14 11:33:39;;;;;;;49.60;31.95;;;13.20;99.90;;;;;;5016644;27;87876;-39
2022/10/14 11:36:27;;;;;;;49.30;34.75;;;13.20;99.90;;;;;;5016133;28;90276;-38
2022/10/14 11:39:08;;;;;;;59.63;35.67;;;13.30;99.90;;;;;;5017298;27;89578;-40
2022/10/14 11:41:40;;;;;;;54.47;34.53;;;13.30;99.90;;;;;;5017671;27;89739;-43
2022/10/14 11:44:13;;;;;;;57.75;34.65;;;13.30;99.90;;;;;;5017095;28;87948;-39
2022/10/14 11:46:43;;;;;;;65.53;37.63;;;13.30;99.90;;;;;;5017234;27;90389;-33
2022/10/14 11:49:18;;;;;;;55.50;33.40;;;13.40;99.90;;;;;;5017388;27;90019;-41
2022/10/14 11:51:52;;;;;;;59.08;36.08;;;13.40;99.90;;;;;;5016830;27;88615;-35
2022/10/14 11:54:35;;;;;;;62.85;36.50;;;13.40;99.90;;;;;;5007335;27;88030;-41
2022/10/14 11:57:23;;;;;;;60.05;37.05;;;13.40;99.90;;;;;;5014932;28;90213;-38
2022/10/14 11:59:51;;;;;;;;;;;13.50;99.90;;;;;;5016878;28;90618;-39
2022/10/14 12:02:17;;;;;;;60.10;39.20;;;13.50;99.90;;;;;;5019787;27;88242;-40
2022/10/14 12:04:48;;;;;;;66.47;37.95;;;13.50;99.90;;;;;;5017272;27;89381;-39
2022/10/14 12:07:18;;;;;;;66.95;38.13;;;13.60;99.90;;;;;;5020881;27;90588;-35
2022/10/14 12:09:56;;;;;;;59.28;36.00;;;13.70;99.90;;;;;;5019921;27;88251;-35
2022/10/14 12:12:23;;;;;;;;;;;13.70;99.90;;;;;;5021080;27;88758;-43
2022/10/14 12:14:56;;;;;;;54.80;34.83;;;13.80;99.90;;;;;;5021722;27;87388;-37
2022/10/14 12:17:32;;;;;;;59.45;39.78;;;13.80;99.90;;;;;;5020755;27;90290;-33
2022/10/14 12:20:04;;;;;;;65.25;38.50;;;13.90;99.90;;;;;;5021759;27;90846;-34
2022/10/14 12:22:31;;;;;;;68.20;38.58;;;13.90;99.90;;;;;;5020095;27;89517;-42
2022/10/14 12:25:11;;;;;;;59.50;37.60;;;13.90;99.90;;;;;;5019554;27;87708;-43
2022/10/14 12:27:38;;;;;;;58.13;36.47;;;14.00;99.90;;;;;;5020191;27;89416;-40
2022/10/14 12:30:24;;;;;;;61.55;38.65;;;14.00;99.90;;;;;;5018088;27;90063;-37
2022/10/14 12:33:06;;;;;;;60.70;37.65;;;13.90;99.90;;;;;;5018718;28;88744;-39
2022/10/14 12:35:58;;;;;;;56.40;37.33;;;14.00;99.90;;;;;;5019290;27;89292;-42
2022/10/14 12:38:26;;;;;;;69.50;38.75;;;14.00;99.90;;;;;;5013989;28;90284;-38
2022/10/14 12:40:52;;;;;;;58.17;39.88;;;14.00;99.90;;;;;;5015061;28;89433;-35
2022/10/14 12:43:22;;;;;;;54.95;37.05;;;14.00;99.90;;;;;;5018985;28;87996;-37
2022/10/14 12:45:59;;;;;;;51.38;35.55;;;14.00;99.90;;;;;;5019219;27;88657;-40
2022/10/14 12:48:30;;;;;;;52.08;35.90;;;14.00;99.90;;;;;;5019260;27;90183;-41
2022/10/14 12:51:20;;;;;;;64.88;36.28;;;14.10;99.90;;;;;;5019139;27;89611;-40